Gnadenhutten, Ohio
Current Conditions -  °F | °C
As of 10:00 AM on Tuesday 21 Oct 2014 (Local Time) from KPHD Reporting Station
Light Rain Light Rain  
Wind Chill: 52°   Ceiling: 6000
Heat Index: 52°   Visibility: 7mi
Dew Point: 48°   Wind: 6mph
Humidity: 86%   Direction: 340°NNW
Pressure: 29.91"   Gusts: NA
Location:  40.36°N, 81.43°W
Report Text: KPHD 211400Z AUTO 34005KT 7SM -RA SCT013 SCT028 OVC060 11/09 A2991 RMK AO2 P0000 T01110089
Loading
Personal Weather Stations






























Interactive Weather Map
Tropical Storm Tracking
New forecast layout! Learn more

10-Day Weather Forecast

Advertisements
Track Severe Weather on mobile